Time;durP1;ratioP1;P1;durP2;ratioP2;P2;SDS_P1;SDS_P2;PMS_P1;PMS_P2;Temp;Humidity;BMP_temperature;BMP_pressure;BME280_temperature;BME280_humidity;BME280_pressure;Samples;Min_cycle;Max_cycle;Signal;HPM_P1;HPM_P2
2023/12/19 00:00:27;;;;;;;22.90;10.63;;;5.00;99.90;;;;;;4996679;28;20025;-85
2023/12/19 00:02:55;;;;;;;17.88;11.15;;;4.90;99.90;;;;;;5000135;28;20029;-85
2023/12/19 00:05:21;;;;;;;12.75;8.07;;;5.00;99.90;;;;;;4980708;28;20041;-86
2023/12/19 00:07:47;;;;;;;14.55;6.97;;;5.00;99.90;;;;;;4996655;28;20034;-85
2023/12/19 00:10:12;;;;;;;18.38;7.05;;;5.00;99.90;;;;;;4984287;28;20094;-85
2023/12/19 00:12:38;;;;;;;18.55;12.10;;;5.00;99.90;;;;;;4977995;28;20105;-83
2023/12/19 00:15:05;;;;;;;13.45;7.07;;;5.00;99.90;;;;;;4980238;28;20042;-84
2023/12/19 00:17:30;;;;;;;10.32;6.50;;;4.90;99.90;;;;;;4975064;28;20048;-83
2023/12/19 00:19:56;;;;;;;17.98;9.90;;;4.90;99.90;;;;;;4986005;28;20046;-86
2023/12/19 00:22:25;;;;;;;12.15;6.60;;;5.00;99.90;;;;;;4980163;28;20026;-83
2023/12/19 00:24:51;;;;;;;17.05;9.23;;;4.90;99.90;;;;;;4982702;28;20034;-85
2023/12/19 00:27:17;;;;;;;15.65;9.60;;;5.00;99.90;;;;;;4977227;28;20049;-82
2023/12/19 00:29:42;;;;;;;12.32;7.72;;;4.90;99.90;;;;;;4996384;28;20409;-87
2023/12/19 00:32:08;;;;;;;18.38;11.02;;;4.90;99.90;;;;;;4992205;28;20049;-83
2023/12/19 00:34:33;;;;;;;15.73;8.73;;;4.80;99.90;;;;;;4994477;28;20084;-84
2023/12/19 00:36:59;;;;;;;20.27;12.93;;;4.80;99.90;;;;;;4993201;28;20100;-84
2023/12/19 00:39:24;;;;;;;13.57;7.07;;;4.80;99.90;;;;;;4978429;28;20093;-85
2023/12/19 00:41:50;;;;;;;12.20;5.80;;;4.90;99.90;;;;;;4978965;28;20045;-86
2023/12/19 00:44:15;;;;;;;9.50;5.45;;;4.90;99.90;;;;;;4996577;28;20046;-84
2023/12/19 00:46:44;;;;;;;18.83;12.13;;;4.80;99.90;;;;;;4978743;28;20030;-85
2023/12/19 00:49:12;;;;;;;13.57;9.35;;;4.80;99.90;;;;;;4994908;28;20035;-84
2023/12/19 00:51:38;;;;;;;17.83;12.15;;;4.80;99.90;;;;;;4975618;28;20610;-83
2023/12/19 00:54:04;;;;;;;15.57;10.48;;;4.80;99.90;;;;;;4975279;28;20030;-83
2023/12/19 00:56:29;;;;;;;12.43;6.88;;;4.80;99.90;;;;;;4981186;28;20346;-83
2023/12/19 00:58:55;;;;;;;14.00;8.40;;;4.90;99.90;;;;;;4978560;28;20030;-86
2023/12/19 01:01:22;;;;;;;18.23;10.75;;;4.80;99.90;;;;;;4994601;28;20037;-85
2023/12/19 01:03:49;;;;;;;13.40;8.30;;;4.80;99.90;;;;;;5000778;28;20056;-86
2023/12/19 01:06:15;;;;;;;12.48;5.70;;;4.80;99.90;;;;;;4984728;28;20065;-83
2023/12/19 01:08:40;;;;;;;17.67;9.35;;;4.70;99.90;;;;;;4985401;28;20434;-84
2023/12/19 01:11:09;;;;;;;15.00;7.68;;;4.80;99.90;;;;;;4968585;28;20034;-84
2023/12/19 01:13:35;;;;;;;5.80;4.13;;;4.80;99.90;;;;;;4976857;28;20033;-85
2023/12/19 01:16:00;;;;;;;13.05;9.48;;;4.90;99.90;;;;;;4994742;28;20033;-83
2023/12/19 01:18:26;;;;;;;17.55;11.88;;;4.80;99.90;;;;;;4995756;28;20046;-85
2023/12/19 01:20:52;;;;;;;11.38;6.15;;;4.80;99.90;;;;;;4982997;28;20026;-85
2023/12/19 01:23:17;;;;;;;14.02;9.88;;;4.80;99.90;;;;;;4979683;28;20026;-85
2023/12/19 01:25:43;;;;;;;7.57;5.07;;;4.80;99.90;;;;;;4994490;28;20034;-86
2023/12/19 01:28:09;;;;;;;17.73;11.98;;;4.80;99.90;;;;;;4982765;28;20439;-85
2023/12/19 01:30:35;;;;;;;17.67;10.25;;;4.80;99.90;;;;;;4978010;28;20035;-85
2023/12/19 01:33:00;;;;;;;5.82;3.10;;;4.80;99.90;;;;;;4982655;28;20046;-84
2023/12/19 01:35:26;;;;;;;15.70;10.75;;;4.80;99.90;;;;;;4961683;28;20069;-85
2023/12/19 01:37:51;;;;;;;13.75;9.35;;;4.80;99.90;;;;;;4995075;28;20034;-85
2023/12/19 01:40:17;;;;;;;11.07;5.95;;;4.80;99.90;;;;;;4979760;28;20561;-85
2023/12/19 01:42:42;;;;;;;9.98;6.68;;;4.80;99.90;;;;;;4983683;28;20760;-85
2023/12/19 01:45:12;;;;;;;12.73;9.07;;;4.70;99.90;;;;;;4984569;28;20034;-85
2023/12/19 01:47:43;;;;;;;9.02;4.28;;;4.80;99.90;;;;;;4986614;28;20089;-85
2023/12/19 01:50:09;;;;;;;10.95;7.68;;;4.70;99.90;;;;;;4994246;28;20030;-83
2023/12/19 01:52:41;;;;;;;11.55;7.63;;;4.80;99.90;;;;;;4984018;28;20044;-84
2023/12/19 01:55:07;;;;;;;13.20;8.20;;;4.70;99.90;;;;;;4982980;28;20034;-84
2023/12/19 01:57:32;;;;;;;11.57;7.53;;;4.70;99.90;;;;;;4998041;28;20053;-86
2023/12/19 01:59:58;;;;;;;8.75;5.15;;;4.70;99.90;;;;;;4995113;28;20044;-86
2023/12/19 02:02:24;;;;;;;8.68;4.75;;;4.80;99.90;;;;;;5012392;28;20038;-85
2023/12/19 02:04:49;;;;;;;12.05;6.85;;;4.70;99.90;;;;;;4996431;28;20054;-85
2023/12/19 02:07:15;;;;;;;11.43;7.13;;;4.80;99.90;;;;;;4995555;28;20034;-84
2023/12/19 02:09:40;;;;;;;13.52;8.48;;;4.70;99.90;;;;;;4967744;28;20102;-82
2023/12/19 02:12:06;;;;;;;15.02;6.85;;;4.70;99.90;;;;;;4985533;28;20081;-86
2023/12/19 02:14:31;;;;;;;6.55;4.10;;;4.80;99.90;;;;;;4984068;28;20482;-86
2023/12/19 02:16:58;;;;;;;14.85;10.65;;;4.80;99.90;;;;;;4977767;28;20033;-86
2023/12/19 02:19:25;;;;;;;14.90;9.23;;;4.80;99.90;;;;;;4979985;28;20069;-84
2023/12/19 02:21:51;;;;;;;11.57;5.97;;;4.80;99.90;;;;;;4978459;28;20514;-86
2023/12/19 02:24:17;;;;;;;17.52;8.23;;;4.80;99.90;;;;;;4992889;28;20046;-83
2023/12/19 02:26:43;;;;;;;16.73;9.63;;;4.80;99.90;;;;;;4984430;28;20153;-85
2023/12/19 02:29:08;;;;;;;16.80;10.30;;;4.80;99.90;;;;;;4981581;28;20066;-84
2023/12/19 02:31:34;;;;;;;14.05;7.88;;;4.80;99.90;;;;;;4981826;28;20030;-84
2023/12/19 02:33:59;;;;;;;11.32;6.28;;;4.90;99.90;;;;;;4990685;28;20034;-85
2023/12/19 02:36:25;;;;;;;18.33;10.70;;;4.80;99.90;;;;;;4995548;28;20041;-85
2023/12/19 02:38:50;;;;;;;17.95;11.23;;;4.80;99.90;;;;;;4996374;28;20092;-85
2023/12/19 02:41:16;;;;;;;11.80;6.97;;;4.90;99.90;;;;;;4983695;28;20034;-84
2023/12/19 02:43:41;;;;;;;17.38;11.05;;;4.80;99.90;;;;;;4989618;28;20061;-82
2023/12/19 02:46:07;;;;;;;11.60;6.53;;;4.80;99.90;;;;;;4982561;28;20041;-85
2023/12/19 02:48:33;;;;;;;14.55;8.27;;;4.90;99.90;;;;;;4983602;28;20037;-82
2023/12/19 02:51:01;;;;;;;10.18;5.82;;;4.90;99.90;;;;;;4992023;28;20117;-86
2023/12/19 02:53:28;;;;;;;15.30;9.50;;;4.90;99.90;;;;;;4985631;28;20073;-84
2023/12/19 02:55:54;;;;;;;13.05;7.18;;;4.80;99.90;;;;;;4990366;28;20026;-86
2023/12/19 02:58:19;;;;;;;18.30;10.70;;;4.90;99.90;;;;;;4994174;28;20648;-84
2023/12/19 03:00:45;;;;;;;10.50;5.88;;;4.90;99.90;;;;;;4976287;28;20315;-83
2023/12/19 03:03:14;;;;;;;17.00;10.32;;;4.90;99.90;;;;;;4980427;28;20093;-85
2023/12/19 03:05:39;;;;;;;15.30;8.48;;;4.90;99.90;;;;;;4978147;28;20026;-85
2023/12/19 03:08:05;;;;;;;19.98;12.52;;;4.90;99.90;;;;;;4977521;28;20049;-86
2023/12/19 03:10:31;;;;;;;22.27;13.65;;;4.90;99.90;;;;;;4979466;28;20045;-85
2023/12/19 03:12:56;;;;;;;16.90;7.93;;;4.90;99.90;;;;;;4979562;28;20030;-85
2023/12/19 03:15:24;;;;;;;24.52;13.20;;;4.90;99.90;;;;;;4981594;28;20078;-85
2023/12/19 03:17:50;;;;;;;16.23;8.50;;;4.90;99.90;;;;;;4979528;28;20042;-85
2023/12/19 03:20:15;;;;;;;19.50;10.65;;;4.90;99.90;;;;;;4976652;28;20040;-86
2023/12/19 03:22:41;;;;;;;21.20;11.70;;;4.90;99.90;;;;;;4985192;28;20149;-85
2023/12/19 03:25:07;;;;;;;14.63;7.25;;;4.90;99.90;;;;;;4982830;28;20034;-87
2023/12/19 03:27:32;;;;;;;22.77;11.68;;;5.00;99.90;;;;;;4994430;28;20045;-83
2023/12/19 03:29:58;;;;;;;24.58;14.38;;;5.00;99.90;;;;;;4979975;28;20049;-88
2023/12/19 03:32:24;;;;;;;17.10;10.20;;;5.00;99.90;;;;;;4986960;28;20044;-82
2023/12/19 03:34:49;;;;;;;18.60;10.23;;;5.00;99.90;;;;;;4990024;28;20030;-88
2023/12/19 03:37:15;;;;;;;16.65;9.60;;;5.00;99.90;;;;;;4979527;28;20058;-88
2023/12/19 03:39:40;;;;;;;27.67;13.68;;;5.00;99.90;;;;;;4975318;28;20046;-80
2023/12/19 03:42:06;;;;;;;24.63;13.73;;;5.00;99.90;;;;;;4967962;28;20544;-78
2023/12/19 03:44:31;;;;;;;14.88;8.57;;;5.00;99.90;;;;;;4971693;28;20547;-79
2023/12/19 03:46:57;;;;;;;21.98;10.43;;;5.10;99.90;;;;;;4971788;28;20851;-79
2023/12/19 03:49:22;;;;;;;24.95;11.77;;;5.00;99.90;;;;;;4975592;28;20042;-82
2023/12/19 03:51:49;;;;;;;14.77;6.30;;;5.10;99.90;;;;;;4999963;28;20077;-85
2023/12/19 03:54:15;;;;;;;17.73;9.55;;;5.00;99.90;;;;;;4980135;28;20034;-83
2023/12/19 03:56:41;;;;;;;19.67;8.75;;;5.00;99.90;;;;;;4998657;28;20040;-86
2023/12/19 03:59:10;;;;;;;18.73;8.15;;;5.00;99.90;;;;;;4998591;28;20038;-86
2023/12/19 04:01:44;;;;;;;25.15;12.63;;;5.10;99.90;;;;;;4981858;28;20029;-87
2023/12/19 04:04:10;;;;;;;25.15;12.55;;;5.10;99.90;;;;;;4987998;28;20094;-81
2023/12/19 04:06:35;;;;;;;21.98;10.60;;;5.10;99.90;;;;;;4995269;28;20065;-84
2023/12/19 04:09:01;;;;;;;15.75;8.63;;;5.10;99.90;;;;;;4981301;28;20762;-86
2023/12/19 04:11:27;;;;;;;19.23;10.38;;;5.10;99.90;;;;;;4984624;28;20072;-83
2023/12/19 04:13:52;;;;;;;12.88;6.88;;;5.10;99.90;;;;;;4985042;28;20037;-86
2023/12/19 04:16:18;;;;;;;20.27;9.48;;;5.10;99.90;;;;;;4979383;28;20034;-84
2023/12/19 04:18:44;;;;;;;13.85;6.25;;;5.10;99.90;;;;;;4998167;28;20044;-87
2023/12/19 04:21:09;;;;;;;15.52;9.23;;;5.10;99.90;;;;;;4981889;28;20061;-86
2023/12/19 04:23:35;;;;;;;19.42;12.27;;;5.20;99.90;;;;;;4998422;28;20454;-83
2023/12/19 04:26:00;;;;;;;16.67;9.20;;;5.10;99.90;;;;;;4984917;28;20518;-85
2023/12/19 04:28:26;;;;;;;14.10;8.00;;;5.20;99.90;;;;;;4999141;28;20094;-88
2023/12/19 04:30:52;;;;;;;11.27;6.75;;;5.20;99.90;;;;;;4977278;28;20034;-84
2023/12/19 04:33:17;;;;;;;10.38;6.53;;;5.20;99.90;;;;;;4981833;28;20042;-85
2023/12/19 04:35:43;;;;;;;11.65;6.82;;;5.20;99.90;;;;;;5000130;28;20026;-83
2023/12/19 04:38:08;;;;;;;9.35;4.50;;;5.20;99.90;;;;;;4983124;28;20034;-86
2023/12/19 04:40:34;;;;;;;11.95;6.55;;;5.30;99.90;;;;;;4986031;28;20093;-86
2023/12/19 04:43:00;;;;;;;10.55;6.80;;;5.30;99.90;;;;;;4979675;28;20026;-85
2023/12/19 04:45:25;;;;;;;7.75;4.88;;;5.30;99.90;;;;;;4984286;28;20414;-85
2023/12/19 04:47:51;;;;;;;12.60;6.50;;;5.30;99.90;;;;;;4981985;28;20449;-85
2023/12/19 04:50:16;;;;;;;6.20;4.22;;;5.30;99.90;;;;;;4978400;28;20037;-83
2023/12/19 04:52:42;;;;;;;11.63;6.75;;;5.30;99.90;;;;;;4982950;28;20034;-85
2023/12/19 04:55:08;;;;;;;6.82;4.28;;;5.30;99.90;;;;;;4981855;28;20027;-84
2023/12/19 04:57:36;;;;;;;7.75;3.95;;;5.30;99.90;;;;;;4984037;28;20032;-86
2023/12/19 05:00:04;;;;;;;11.85;6.43;;;5.40;99.90;;;;;;4977830;28;20052;-86
2023/12/19 05:02:30;;;;;;;12.73;8.60;;;5.40;99.90;;;;;;4981802;28;20045;-84
2023/12/19 05:04:55;;;;;;;6.60;4.13;;;5.40;99.90;;;;;;4981931;28;20034;-86
2023/12/19 05:07:21;;;;;;;12.73;6.43;;;5.40;99.90;;;;;;4982994;28;20038;-85
2023/12/19 05:09:46;;;;;;;10.43;5.82;;;5.40;99.90;;;;;;4984457;28;20065;-81
2023/12/19 05:12:12;;;;;;;11.63;6.03;;;5.60;99.90;;;;;;4984424;28;20030;-84
2023/12/19 05:14:38;;;;;;;11.95;6.75;;;5.40;99.90;;;;;;4982141;28;20038;-84
2023/12/19 05:17:03;;;;;;;5.85;3.95;;;5.50;99.90;;;;;;4998239;28;20704;-87
2023/12/19 05:19:29;;;;;;;4.97;3.20;;;5.40;99.90;;;;;;4978743;28;20042;-86
2023/12/19 05:21:55;;;;;;;9.32;5.32;;;5.50;99.90;;;;;;4978293;28;20026;-84
2023/12/19 05:24:21;;;;;;;7.53;4.85;;;5.50;99.90;;;;;;4975345;28;20046;-84
2023/12/19 05:26:46;;;;;;;8.85;4.40;;;5.40;99.90;;;;;;4978654;28;20831;-86
2023/12/19 05:29:13;;;;;;;6.38;3.80;;;5.50;99.90;;;;;;4978942;28;20030;-86
2023/12/19 05:31:38;;;;;;;10.50;5.18;;;5.50;99.90;;;;;;4979418;28;20041;-85
2023/12/19 05:34:04;;;;;;;7.63;5.13;;;5.50;99.90;;;;;;4996053;28;20401;-85
2023/12/19 05:36:33;;;;;;;11.13;7.38;;;5.40;99.90;;;;;;4981071;28;20164;-85
2023/12/19 05:39:02;;;;;;;8.05;4.80;;;5.50;99.90;;;;;;4980080;28;20036;-85
2023/12/19 05:41:28;;;;;;;7.97;5.00;;;5.50;99.90;;;;;;4991113;28;20034;-82
2023/12/19 05:43:59;;;;;;;4.95;2.83;;;5.50;99.90;;;;;;4992860;28;20120;-85
2023/12/19 05:46:25;;;;;;;8.02;4.40;;;5.50;99.90;;;;;;4975983;28;20124;-85
2023/12/19 05:48:51;;;;;;;10.18;6.32;;;5.50;99.90;;;;;;4989823;28;20795;-86
2023/12/19 05:51:18;;;;;;;6.30;4.40;;;5.50;99.90;;;;;;4976273;28;20034;-86
2023/12/19 05:53:44;;;;;;;6.95;4.97;;;5.50;99.90;;;;;;4993979;28;20046;-86
2023/12/19 05:56:15;;;;;;;9.55;6.13;;;5.50;99.90;;;;;;4977825;28;20517;-84
2023/12/19 05:58:41;;;;;;;7.90;4.65;;;5.50;99.90;;;;;;4994851;28;20098;-84
2023/12/19 06:01:06;;;;;;;7.70;4.45;;;5.60;99.90;;;;;;4996432;28;20054;-85
2023/12/19 06:03:32;;;;;;;8.32;5.43;;;5.60;99.90;;;;;;4974594;28;20169;-83
2023/12/19 06:05:58;;;;;;;13.68;9.25;;;5.60;99.90;;;;;;4983970;28;20123;-86
2023/12/19 06:08:24;;;;;;;12.20;8.18;;;5.60;99.90;;;;;;4979657;28;20057;-85
2023/12/19 06:10:51;;;;;;;7.80;4.88;;;5.60;99.90;;;;;;4974658;28;20074;-86
2023/12/19 06:13:17;;;;;;;9.05;5.47;;;5.60;99.90;;;;;;5001414;28;20025;-84
2023/12/19 06:15:43;;;;;;;17.58;10.45;;;5.60;99.90;;;;;;4976759;28;20033;-86
2023/12/19 06:18:09;;;;;;;8.48;4.90;;;5.60;99.90;;;;;;4983293;28;20099;-87
2023/12/19 06:20:34;;;;;;;8.07;5.65;;;5.60;99.90;;;;;;4979944;28;20042;-83
2023/12/19 06:23:00;;;;;;;12.20;6.88;;;5.60;99.90;;;;;;4963996;28;20030;-84
2023/12/19 06:25:26;;;;;;;8.15;5.65;;;5.60;99.90;;;;;;4977959;28;20026;-86
2023/12/19 06:27:52;;;;;;;9.65;5.45;;;5.70;99.90;;;;;;4976808;28;20048;-84
2023/12/19 06:30:18;;;;;;;8.00;5.03;;;5.60;99.90;;;;;;4979869;28;20045;-83
2023/12/19 06:32:45;;;;;;;14.32;7.68;;;5.70;99.90;;;;;;4998085;28;20030;-83
2023/12/19 06:35:11;;;;;;;19.20;12.57;;;5.70;99.90;;;;;;4982965;28;20054;-84
2023/12/19 06:37:37;;;;;;;18.98;12.80;;;5.70;99.90;;;;;;4967208;28;20045;-82
2023/12/19 06:40:04;;;;;;;13.13;7.28;;;5.70;99.90;;;;;;4993411;28;20045;-86
2023/12/19 06:42:31;;;;;;;12.48;7.68;;;5.70;99.90;;;;;;4993558;28;20197;-85
2023/12/19 06:44:57;;;;;;;12.82;8.35;;;5.70;99.90;;;;;;4994814;28;20042;-84
2023/12/19 06:47:23;;;;;;;18.98;10.55;;;5.70;99.90;;;;;;4992804;28;20042;-85
2023/12/19 06:49:49;;;;;;;12.13;6.70;;;5.70;99.90;;;;;;4994877;28;20109;-84
2023/12/19 06:52:14;;;;;;;14.68;8.30;;;5.70;99.90;;;;;;4997320;28;20057;-85
2023/12/19 06:54:40;;;;;;;12.13;6.90;;;5.70;99.90;;;;;;4982593;28;20022;-84
2023/12/19 06:57:06;;;;;;;12.73;6.63;;;5.70;99.90;;;;;;4977844;28;20381;-84
2023/12/19 06:59:34;;;;;;;11.90;7.03;;;5.70;99.90;;;;;;4967660;28;20035;-84
2023/12/19 07:02:00;;;;;;;11.60;7.60;;;5.80;99.90;;;;;;4977835;28;20389;-84
2023/12/19 07:04:26;;;;;;;16.08;8.70;;;5.70;99.90;;;;;;4978836;28;20094;-85
2023/12/19 07:06:52;;;;;;;10.82;7.28;;;5.80;99.90;;;;;;4982649;28;20481;-86
2023/12/19 07:09:17;;;;;;;13.63;8.15;;;5.70;99.90;;;;;;4984133;28;20054;-79
2023/12/19 07:11:43;;;;;;;12.57;7.05;;;5.80;99.90;;;;;;4968972;28;20038;-79
2023/12/19 07:14:12;;;;;;;13.02;7.47;;;5.70;99.90;;;;;;4955382;28;20033;-79
2023/12/19 07:16:40;;;;;;;13.63;7.85;;;5.70;99.90;;;;;;4966249;28;20038;-79
2023/12/19 07:19:05;;;;;;;11.75;6.50;;;5.90;99.90;;;;;;4984944;28;20038;-80
2023/12/19 07:21:35;;;;;;;15.77;9.25;;;5.80;99.90;;;;;;4953693;28;20037;-79
2023/12/19 07:24:00;;;;;;;10.70;6.97;;;5.80;99.90;;;;;;4986172;28;20030;-80
2023/12/19 07:26:27;;;;;;;13.48;7.18;;;5.80;99.90;;;;;;4971016;28;20588;-80
2023/12/19 07:28:59;;;;;;;10.85;6.70;;;5.80;99.90;;;;;;4970812;28;20035;-80
2023/12/19 07:31:29;;;;;;;11.15;7.47;;;5.80;99.90;;;;;;4974632;28;20033;-79
2023/12/19 07:33:59;;;;;;;11.50;6.97;;;5.80;99.90;;;;;;4981484;28;20057;-79
2023/12/19 07:36:25;;;;;;;14.02;9.95;;;5.90;99.90;;;;;;4969171;28;20048;-80
2023/12/19 07:38:51;;;;;;;11.43;7.00;;;5.80;99.90;;;;;;4971063;28;20643;-80
2023/12/19 07:41:17;;;;;;;12.30;7.57;;;5.80;99.90;;;;;;4972603;28;20532;-80
2023/12/19 07:43:43;;;;;;;15.57;10.25;;;5.90;99.90;;;;;;4970273;28;20045;-78
2023/12/19 07:46:08;;;;;;;11.98;7.05;;;5.90;99.90;;;;;;4973538;28;20036;-79
2023/12/19 07:48:35;;;;;;;9.20;6.03;;;5.90;99.90;;;;;;4975379;28;20040;-80
2023/12/19 07:51:01;;;;;;;13.68;9.32;;;5.90;99.90;;;;;;4967877;28;20112;-80
2023/12/19 07:53:27;;;;;;;11.13;7.15;;;6.00;99.90;;;;;;4989260;28;20125;-79
2023/12/19 07:55:52;;;;;;;19.25;11.57;;;6.00;99.90;;;;;;4990014;28;20054;-79
2023/12/19 07:58:18;;;;;;;10.80;7.18;;;6.00;99.90;;;;;;4985981;28;20030;-81
2023/12/19 08:00:44;;;;;;;14.20;8.82;;;6.00;99.90;;;;;;4991633;28;20030;-82
2023/12/19 08:03:10;;;;;;;9.70;6.80;;;6.00;99.90;;;;;;4978918;28;20027;-81
2023/12/19 08:05:35;;;;;;;19.23;11.57;;;6.00;99.90;;;;;;4984364;28;20030;-81
2023/12/19 08:08:01;;;;;;;8.77;5.05;;;6.00;99.90;;;;;;4975433;28;20042;-80
2023/12/19 08:10:26;;;;;;;16.33;9.13;;;6.00;99.90;;;;;;4972858;28;20034;-81
2023/12/19 08:12:52;;;;;;;15.57;11.85;;;6.20;99.90;;;;;;4959486;28;20125;-82
2023/12/19 08:15:18;;;;;;;14.93;8.98;;;6.10;99.90;;;;;;4995899;28;20045;-80
2023/12/19 08:17:44;;;;;;;12.60;6.60;;;6.10;99.90;;;;;;4992320;28;20022;-81
2023/12/19 08:20:11;;;;;;;18.42;9.55;;;6.10;99.90;;;;;;4974544;28;20072;-81
2023/12/19 08:22:37;;;;;;;14.30;8.75;;;6.10;99.90;;;;;;4979153;28;20037;-81
2023/12/19 08:25:03;;;;;;;11.60;6.93;;;6.20;99.90;;;;;;4970026;28;20117;-80
2023/12/19 08:27:34;;;;;;;9.40;7.35;;;6.10;99.90;;;;;;4977149;28;20241;-81
2023/12/19 08:30:01;;;;;;;12.93;8.98;;;6.20;99.90;;;;;;4981308;28;20457;-80
2023/12/19 08:32:29;;;;;;;12.55;8.63;;;6.20;99.90;;;;;;4984279;28;20025;-79
2023/12/19 08:34:56;;;;;;;8.52;6.03;;;6.20;99.90;;;;;;4979146;28;20038;-80
2023/12/19 08:37:22;;;;;;;15.75;8.25;;;6.20;99.90;;;;;;4973366;28;20088;-81
2023/12/19 08:39:54;;;;;;;13.90;6.25;;;6.20;99.90;;;;;;4970614;28;20509;-81
2023/12/19 08:42:20;;;;;;;9.82;6.65;;;6.20;99.90;;;;;;4959133;28;20045;-81
2023/12/19 08:44:46;;;;;;;8.30;5.03;;;6.20;99.90;;;;;;4993241;28;20045;-81
2023/12/19 08:47:11;;;;;;;8.90;4.95;;;6.20;99.90;;;;;;4994074;28;20038;-81
2023/12/19 08:49:42;;;;;;;11.45;7.45;;;6.20;99.90;;;;;;4973022;28;20034;-79
2023/12/19 08:52:08;;;;;;;8.77;6.00;;;6.20;99.90;;;;;;4971251;28;20117;-79
2023/12/19 08:54:33;;;;;;;10.82;6.18;;;6.20;99.90;;;;;;4993742;28;20119;-79
2023/12/19 08:56:59;;;;;;;9.05;6.20;;;6.30;99.90;;;;;;4978645;28;20092;-79
2023/12/19 08:59:26;;;;;;;10.48;6.60;;;6.20;99.90;;;;;;4988238;28;20072;-81
2023/12/19 09:01:51;;;;;;;12.40;8.70;;;6.30;99.90;;;;;;4973415;28;20037;-82
2023/12/19 09:04:17;;;;;;;13.23;6.47;;;6.30;99.90;;;;;;4968287;28;20034;-82
2023/12/19 09:06:42;;;;;;;10.70;6.72;;;6.30;99.90;;;;;;4983514;28;20034;-82
2023/12/19 09:09:11;;;;;;;6.78;3.97;;;6.30;99.90;;;;;;4990071;28;20442;-82
2023/12/19 09:11:37;;;;;;;15.63;7.30;;;6.30;99.90;;;;;;4984411;28;20033;-82
2023/12/19 09:14:03;;;;;;;11.38;6.38;;;6.30;99.90;;;;;;4972981;28;20485;-82
2023/12/19 09:16:28;;;;;;;12.63;9.60;;;6.40;99.90;;;;;;4966032;28;20030;-82
2023/12/19 09:18:55;;;;;;;8.48;4.78;;;6.40;99.90;;;;;;4971412;28;20038;-83
2023/12/19 09:21:21;;;;;;;13.25;7.35;;;6.40;99.90;;;;;;4987411;28;20115;-83
2023/12/19 09:23:47;;;;;;;12.32;7.00;;;6.40;99.90;;;;;;4970020;28;20030;-82
2023/12/19 09:26:14;;;;;;;16.20;10.43;;;6.40;99.90;;;;;;4981417;28;20112;-82
2023/12/19 09:28:40;;;;;;;11.00;9.25;;;6.40;99.90;;;;;;4986412;28;20030;-82
2023/12/19 09:31:08;;;;;;;9.18;5.07;;;6.40;99.90;;;;;;4987339;28;20030;-83
2023/12/19 09:33:37;;;;;;;11.52;5.43;;;6.50;99.90;;;;;;4972062;28;20028;-82
2023/12/19 09:36:07;;;;;;;11.93;8.40;;;6.40;99.90;;;;;;4965849;28;20033;-82
2023/12/19 09:38:36;;;;;;;6.47;4.47;;;6.40;99.90;;;;;;4974428;28;20379;-82
2023/12/19 09:41:02;;;;;;;11.30;4.38;;;6.40;99.90;;;;;;4963122;28;20034;-82
2023/12/19 09:43:32;;;;;;;9.52;6.28;;;6.40;99.90;;;;;;4969716;28;20038;-82
2023/12/19 09:46:00;;;;;;;8.05;5.63;;;6.50;99.90;;;;;;4979063;28;20493;-82
2023/12/19 09:48:26;;;;;;;12.43;8.68;;;6.50;99.90;;;;;;4945414;28;20793;-83
2023/12/19 09:51:05;;;;;;;9.07;4.20;;;6.50;99.90;;;;;;4952613;28;20034;-82
2023/12/19 09:53:31;;;;;;;9.20;5.28;;;6.50;99.90;;;;;;4944076;28;20563;-82
2023/12/19 09:55:57;;;;;;;10.48;5.68;;;6.50;99.90;;;;;;4966175;28;20482;-82
2023/12/19 09:58:23;;;;;;;9.30;6.30;;;6.50;99.90;;;;;;4955334;28;20034;-83
2023/12/19 10:00:48;;;;;;;8.48;6.25;;;6.50;99.90;;;;;;4968261;28;20030;-83
2023/12/19 10:03:14;;;;;;;8.93;5.50;;;6.50;99.90;;;;;;4982909;28;20088;-83
2023/12/19 10:06:07;;;;;;;8.23;5.70;;;6.50;99.90;;;;;;4962776;28;20073;-82
2023/12/19 10:08:33;;;;;;;5.82;2.80;;;6.60;99.90;;;;;;4927987;28;20877;-83
2023/12/19 10:15:13;;;;;;;12.40;7.57;;;6.60;99.90;;;;;;4883882;29;20613;-84
2023/12/19 10:17:39;;;;;;;10.30;6.57;;;6.60;99.90;;;;;;4955625;28;20167;-83
2023/12/19 10:20:11;;;;;;;8.70;6.68;;;6.60;99.90;;;;;;4967300;28;20030;-83
2023/12/19 10:23:38;;;;;;;9.13;3.88;;;6.60;99.90;;;;;;4955841;28;20060;-83
2023/12/19 10:26:09;;;;;;;7.03;4.75;;;6.60;99.90;;;;;;4936697;28;20108;-84
2023/12/19 10:29:16;;;;;;;6.72;5.15;;;6.60;99.90;;;;;;4970659;28;20400;-82
2023/12/19 10:31:42;;;;;;;11.50;5.68;;;6.60;99.90;;;;;;5002333;28;20033;-83
2023/12/19 10:34:15;;;;;;;9.18;4.05;;;6.60;99.90;;;;;;4973259;28;20405;-83
2023/12/19 10:36:44;;;;;;;6.07;4.22;;;6.60;99.90;;;;;;4969118;28;20107;-83
2023/12/19 10:39:12;;;;;;;6.50;5.22;;;6.60;99.90;;;;;;4979511;28;20045;-85
2023/12/19 10:41:38;;;;;;;4.90;3.42;;;6.60;99.90;;;;;;4948403;28;20030;-85
2023/12/19 10:44:04;;;;;;;4.15;3.65;;;6.60;99.90;;;;;;4960557;28;20048;-81
2023/12/19 10:46:32;;;;;;;6.80;4.93;;;6.60;99.90;;;;;;4984421;28;20248;-81
2023/12/19 10:48:58;;;;;;;7.28;4.72;;;6.60;99.90;;;;;;4988561;28;20037;-81
2023/12/19 10:51:35;;;;;;;6.82;3.35;;;6.60;99.90;;;;;;4973790;28;20865;-80
2023/12/19 10:54:14;;;;;;;3.67;2.63;;;6.70;99.90;;;;;;4987693;28;20030;-80
2023/12/19 10:57:15;;;;;;;9.43;3.50;;;6.70;99.90;;;;;;4969920;28;20050;-80
2023/12/19 11:00:17;;;;;;;4.97;3.72;;;6.70;99.90;;;;;;4970452;28;20030;-81
2023/12/19 11:03:14;;;;;;;5.43;2.88;;;6.70;99.90;;;;;;4968003;28;20028;-81
2023/12/19 11:05:45;;;;;;;4.00;2.72;;;6.70;99.90;;;;;;5000795;28;20034;-80
2023/12/19 11:08:17;;;;;;;4.53;2.70;;;6.70;99.90;;;;;;4983486;28;20400;-80
2023/12/19 11:10:52;;;;;;;6.32;4.30;;;6.70;99.90;;;;;;4981323;28;20490;-80
2023/12/19 11:13:18;;;;;;;5.35;3.60;;;6.70;99.90;;;;;;4962228;28;20537;-81
2023/12/19 11:15:53;;;;;;;4.05;2.53;;;6.80;99.90;;;;;;4966817;28;20069;-80
2023/12/19 11:18:25;;;;;;;7.88;4.90;;;6.70;99.90;;;;;;4970713;28;20048;-81
2023/12/19 11:20:58;;;;;;;8.60;3.80;;;6.70;99.90;;;;;;4969242;28;20497;-81
2023/12/19 11:23:45;;;;;;;3.75;2.92;;;6.80;99.90;;;;;;4973076;28;20072;-80
2023/12/19 11:26:24;;;;;;;6.05;1.92;;;6.80;99.90;;;;;;5000981;28;20058;-80
2023/12/19 11:28:50;;;;;;;5.00;3.20;;;6.90;99.90;;;;;;4984660;28;20429;-83
2023/12/19 11:31:36;;;;;;;4.07;3.38;;;6.80;99.90;;;;;;4986717;28;20033;-80
2023/12/19 11:34:24;;;;;;;2.17;1.65;;;6.80;99.90;;;;;;4987395;28;20030;-81
2023/12/19 11:37:03;;;;;;;3.20;2.00;;;6.80;99.90;;;;;;4979081;28;20026;-82
2023/12/19 11:39:31;;;;;;;1.40;0.98;;;6.80;99.90;;;;;;4959827;28;20034;-80
2023/12/19 11:41:57;;;;;;;2.60;1.80;;;6.80;99.90;;;;;;4974103;28;20026;-79
2023/12/19 11:44:35;;;;;;;8.15;3.60;;;6.80;99.90;;;;;;4975426;28;20036;-80
2023/12/19 11:47:16;;;;;;;2.28;1.60;;;6.80;99.90;;;;;;4969979;28;20668;-81
2023/12/19 11:49:42;;;;;;;2.65;1.70;;;6.80;99.90;;;;;;4970132;28;20053;-83
2023/12/19 11:52:07;;;;;;;0.93;0.82;;;6.80;99.90;;;;;;4956628;28;20808;-83
2023/12/19 11:54:34;;;;;;;3.92;2.00;;;6.80;99.90;;;;;;4987958;28;20037;-83
2023/12/19 11:57:01;;;;;;;4.25;2.65;;;6.80;99.90;;;;;;4984848;28;20045;-84
2023/12/19 11:59:47;;;;;;;2.80;2.15;;;6.80;99.90;;;;;;4984953;28;20034;-82
2023/12/19 12:02:25;;;;;;;2.40;1.52;;;6.80;99.90;;;;;;4978540;28;20045;-84
2023/12/19 12:05:07;;;;;;;3.30;2.22;;;6.80;99.90;;;;;;4975960;28;20117;-83
2023/12/19 12:07:42;;;;;;;1.88;1.63;;;6.80;99.90;;;;;;4982559;28;20550;-84
2023/12/19 12:10:09;;;;;;;2.50;1.27;;;6.80;99.90;;;;;;4981893;28;20045;-84
2023/12/19 12:12:35;;;;;;;4.35;2.33;;;6.80;99.90;;;;;;4982076;28;20685;-85
2023/12/19 12:15:12;;;;;;;4.20;1.70;;;6.80;99.90;;;;;;4970323;28;20041;-84
2023/12/19 12:17:38;;;;;;;2.83;2.25;;;6.90;99.90;;;;;;4959326;28;20393;-84
2023/12/19 12:20:06;;;;;;;3.97;2.47;;;6.90;99.90;;;;;;4970951;28;20035;-84
2023/12/19 12:22:32;;;;;;;2.78;2.03;;;6.90;99.90;;;;;;4976706;28;20033;-85
2023/12/19 12:25:01;;;;;;;3.35;2.70;;;6.90;99.90;;;;;;4970640;28;20038;-83
2023/12/19 12:27:27;;;;;;;6.75;3.95;;;6.90;99.90;;;;;;4989051;28;20088;-83
2023/12/19 12:29:53;;;;;;;3.05;2.35;;;6.90;99.90;;;;;;4975656;28;20030;-83
2023/12/19 12:32:18;;;;;;;5.00;3.15;;;6.90;99.90;;;;;;4974623;28;20068;-83
2023/12/19 12:34:47;;;;;;;3.28;2.25;;;7.00;99.90;;;;;;4976843;28;20433;-83
2023/12/19 12:37:17;;;;;;;4.07;2.42;;;6.90;99.90;;;;;;4982071;28;20030;-82
2023/12/19 12:39:42;;;;;;;4.25;2.42;;;6.90;99.90;;;;;;4977960;28;20726;-82
2023/12/19 12:42:08;;;;;;;4.78;2.33;;;7.00;99.90;;;;;;4985228;28;20034;-81
2023/12/19 12:44:34;;;;;;;3.72;2.65;;;7.00;99.90;;;;;;4969827;28;20034;-82
2023/12/19 12:47:00;;;;;;;4.80;3.75;;;7.00;99.90;;;;;;4973710;28;20121;-82
2023/12/19 12:49:27;;;;;;;2.42;2.22;;;6.90;99.90;;;;;;4989192;28;20044;-81
2023/12/19 12:51:58;;;;;;;1.92;1.73;;;7.00;99.90;;;;;;4969714;28;20393;-82
2023/12/19 12:54:23;;;;;;;3.65;2.60;;;7.00;99.90;;;;;;4956428;28;20073;-82
2023/12/19 12:56:49;;;;;;;3.97;2.70;;;7.00;99.90;;;;;;4986824;28;20101;-82